Terminal Aerodrome Forecast
Issued by NWS

Home | Current Version | Previous Version | Text Only | Print | Product List | Glossary On
Versions: 1 2 3 4 5 6 7 8 9 10 11 12 13 14 15 16 17 18 19 20 21 22 23 24 25 26
000
FTAK31 PANC 280530
TAFASD
TAF
PASD 280530Z 2806/2906 00000KT P6SM SCT025 BKN080
     FM280900 20005KT P6SM -RA SCT015 BKN025
     FM281400 VRB04KT 5SM -RA BR BKN015
     FM282100 34006KT P6SM -SHRA SCT010 OVC020
     FM290300 VRB03KT 5SM -RA BR SCT010 OVC018=

USA.gov is the U.S. government's official web portal to all federal, state and local government web resources and services.